This is the latest recevied weather packets stored in our database for station/object KD4WLE. If no packets are shown the sender has not sent any weather packets the latest 1 day(s).
| Time | Temp. | Humidity | Pressure | Rain* | Wind** | Luminosity | Snow |
|---|---|---|---|---|---|---|---|
| 1778034485 | 22.22° C | 79% | 1017.2 hPa | 0 mm | - | 0 W/m² | - |
| 1778034183 | 22.22° C | 79% | 1017.2 hPa | 0 mm | - | 0 W/m² | - |
| 1778033881 | 22.22° C | 79% | 1017.1 hPa | 0 mm | - | 0 W/m² | - |
| 1778033578 | 22.22° C | 78% | 1017 hPa | 0 mm | - | 0 W/m² | - |
| 1778033274 | 22.22° C | 78% | 1016.8 hPa | 0 mm | - | 0 W/m² | - |
| 1778032670 | 22.22° C | 77% | 1016.8 hPa | 0 mm | - | 0 W/m² | - |
| 1778032367 | 22.22° C | 78% | 1016.9 hPa | 0 mm | - | 0 W/m² | - |
| 1778032063 | 22.22° C | 78% | 1016.8 hPa | 0 mm | - | 0 W/m² | - |
| 1778031761 | 22.22° C | 78% | 1016.9 hPa | 0 mm | - | 0 W/m² | - |
| 1778031457 | 22.22° C | 77% | 1017 hPa | 0 mm | - | 0 W/m² | - |
| 1778031154 | 22.22° C | 78% | 1016.8 hPa | 0 mm | - | 0 W/m² | - |
| 1778030548 | 22.22° C | 77% | 1016.7 hPa | 0 mm | - | 0 W/m² | - |
| 1778030245 | 22.22° C | 77% | 1016.8 hPa | 0 mm | - | 0 W/m² | - |
| 1778029941 | 22.78° C | 76% | 1016.6 hPa | 0 mm | - | 0 W/m² | - |
| 1778029640 | 22.78° C | 75% | 1016.5 hPa | 0 mm | - | 0 W/m² | - |
| 1778029337 | 22.78° C | 75% | 1016.5 hPa | 0 mm | - | 0 W/m² | - |
| 1778029034 | 22.78° C | 74% | 1016.5 hPa | 0 mm | - | 0 W/m² | - |
| 1778027517 | 23.33° C | 73% | 1016.1 hPa | 0 mm | - | 0 W/m² | - |
| 1778027212 | 23.33° C | 71% | 1016.2 hPa | 0 mm | - | 0 W/m² | - |
| 1778026604 | 23.33° C | 69% | 1016.3 hPa | 0 mm | - | 0 W/m² | - |
| 1778026302 | 23.33° C | 68% | 1016.1 hPa | 0 mm | - | 0 W/m² | - |
| 1778026000 | 23.33° C | 68% | 1016.2 hPa | 0 mm | - | 1 W/m² | - |
| 1778022368 | 25.56° C | 56% | 1016.1 hPa | 0 mm | - | 55 W/m² | - |
| 1778020851 | 26.67° C | 53% | 1016.3 hPa | 0 mm | - | 81 W/m² | - |
| 1778020548 | 26.11° C | 54% | 1016.4 hPa | 0 mm | - | 126 W/m² | - |
* Rain latest hour (hover to see other rain measurements)
** Current wind speed in m/s (hover to see current wind gust speed)